Aviation Digital Data Service (ADDS)

Output produced by METARs form (1109 UTC 22 November 2017)
found at http://aviationweather.gov/adds/metars/
 
KDEN 221006Z 2210/2312 22007KT P6SM FEW160 BKN220 
     FM221900 28006KT P6SM FEW130 BKN220 
     FM222100 31011KT P6SM SCT120 BKN220 
     FM230200 21011KT P6SM SCT220